臺北飛航情報區 - 海峽席

METAR RCTP 281400Z 07009KT 9999 FEW020 27/22 Q1009 NOSIG RMK A2982=

站台狀態:Online
最後更新:2021-09-28 22:00:01